Keller, Indiana
Current Conditions -  °F | °C
As of 10:53 PM on Friday 19 Dec 2014 (Local Time) from KHUF Reporting Station
Overcast Overcast  
Wind Chill: 31°   Ceiling: 2500
Heat Index: 31°   Visibility: 10mi
Dew Point: 25°   Wind: 3mph
Humidity: 79%   Direction: 70°ENE
Pressure: 30.27"   Gusts: NA
Location:  39.3587°N, 87.4056°W
Report Text: KHUF 200353Z 07003KT 10SM OVC025 M01/M04 A3027 RMK AO2 SLP258 T10061039
Loading
Personal Weather Stations






























Interactive Weather Map New forecast layout! Learn more

10-Day Weather Forecast

Advertisements
Track Severe Weather on mobile